Wildomar, CA

10:02 AM PDT on September 02, 2014 (GMT -0700)
Riverside Municipal | Change Station
CLOSE
Current Station
Airport
Location: Riverside,
Elevation: 817 ft
Nearby Weather Stations

Elev 817 ft 33.95 °N, 117.45 °W | Updated 9 minutes ago

Haze
Haze
69 °F
Feels Like 69 °F
N
0
Wind Variable Wind from North

Today
High -- | Low -- °F
--% Chance of Precip.
Yesterday
High -- | Low -- °F
Precip. -- in
6:23 AM 7:13 PM
First Quarter, 53% visible
Pressure 29.83 in
Visibility 6.0 miles
Clouds Clear
Dew Point 62 °F
Humidity 78%
Rainfall 0.00 in
Snow Depth Not available.
UV 5 out of 12
Pollen 7.80 out of 12
Ozone Good
PM2.5 Good
Flu Activity Not available.
METAR KRAL 021653Z 00000KT 6SM HZ CLR 21/17 A2987 RMK AO2 SLP099 T02060167

More Conditions Fewer Conditions

Pressure 29.83 in
Visibility 6.0 miles
Clouds Clear
Dew Point 62 °F
Humidity 78%
Rainfall 0.00 in
Snow Depth Not available.
UV 5 out of 12
Pollen 7.80 out of 12
Ozone Good
PM2.5 Good
Flu Activity Not available.
METAR KRAL 021653Z 00000KT 6SM HZ CLR 21/17 A2987 RMK AO2 SLP099 T02060167

More Conditions Fewer Conditions

10-Day Weather Forecast

Almanac

Astronomy

Sep. 02, 2014 Rise Set
Actual Time 6:23 AM PDT 7:13 PM PDT
Civil Twilight 5:58 AM PDT 7:38 PM PDT
Nautical Twilight 5:28 AM PDT 8:08 PM PDT
Astronomical Twilight 4:57 AM PDT 8:38 PM PDT
Moon 1:51 PM PDT No Moon Set
Length of Visible Light 13h 39m
Length of Day
12h 49m
Tomorrow will be 2m 0s shorter.
First Quarter, 53% of the Moon is Illuminated
Today
First Quarter
Sep 8
Full
Sep 15
Last Quarter
Sep 24
New
Oct 1
First Quarter

Today's Extremes

State Highs State Lows

Community

WunderPhotos

Upload Photos

1,749,720 photos uploaded!

Nearby

Air Quality

  Air Quality AQ Index Pollutant
Yesterday Good
OZONE
Yesterday Good
PM10
Current Good
PM2.5
Current Good
OZONE
Tuesday Moderate
OZONE
Tuesday Good
PM10
Tuesday Good
CO
Tuesday Good
NO2

Snow Depth

Station Depth Elevation
Summit Meadow 1 in 9122 ft
Blue Lakes 0 in 8000 ft
Forestdale Creek 0 in 8029 ft
Hagan's Meadow 0 in 8000 ft
CSS Lab 2 in 6900 ft

Earthquake Activity

City Distance Mag. Time & Date
Holtville, California 121 miles 2.5 5:43 PM PDT
2014-09-01
Holtville, California 122 miles 2.5 5:26 PM PDT
2014-09-01
Malibu, California 106 miles 2.5 8:11 AM PDT
2014-08-30
Minimum magnitude displayed is 2.5.

Coastal Water Temperatures

Place Temperature
La Jolla, CA 71.1 °F
San Diego, CA 75.0 °F

Nearby Weather Stations